sensor_id;sensor_type;location;lat;lon;timestamp;temperature;humidity
67050;DHT22;53955;52.442;13.284;2023-07-13T00:00:47;23.60;38.00
67050;DHT22;53955;52.442;13.284;2023-07-13T00:03:15;23.60;37.80
67050;DHT22;53955;52.442;13.284;2023-07-13T00:05:42;23.50;38.00
67050;DHT22;53955;52.442;13.284;2023-07-13T00:08:09;23.50;37.80
67050;DHT22;53955;52.442;13.284;2023-07-13T00:10:39;23.40;37.70
67050;DHT22;53955;52.442;13.284;2023-07-13T00:13:07;23.50;37.80
67050;DHT22;53955;52.442;13.284;2023-07-13T00:15:34;23.40;37.50
67050;DHT22;53955;52.442;13.284;2023-07-13T00:18:01;23.30;37.30
67050;DHT22;53955;52.442;13.284;2023-07-13T00:20:29;23.40;37.40
67050;DHT22;53955;52.442;13.284;2023-07-13T00:22:55;23.30;37.70
67050;DHT22;53955;52.442;13.284;2023-07-13T00:25:23;23.30;38.10
67050;DHT22;53955;52.442;13.284;2023-07-13T00:27:51;23.30;38.10
67050;DHT22;53955;52.442;13.284;2023-07-13T00:30:18;23.30;38.10
67050;DHT22;53955;52.442;13.284;2023-07-13T00:32:44;23.30;38.00
67050;DHT22;53955;52.442;13.284;2023-07-13T00:35:13;23.20;38.50
67050;DHT22;53955;52.442;13.284;2023-07-13T00:37:41;23.20;38.30
67050;DHT22;53955;52.442;13.284;2023-07-13T00:40:10;23.20;38.60
67050;DHT22;53955;52.442;13.284;2023-07-13T00:42:37;23.20;38.70
67050;DHT22;53955;52.442;13.284;2023-07-13T00:45:06;23.10;38.60
67050;DHT22;53955;52.442;13.284;2023-07-13T00:47:33;23.20;38.70
67050;DHT22;53955;52.442;13.284;2023-07-13T00:50:00;23.10;39.30
67050;DHT22;53955;52.442;13.284;2023-07-13T00:52:27;23.00;39.20
67050;DHT22;53955;52.442;13.284;2023-07-13T00:54:56;23.00;39.50
67050;DHT22;53955;52.442;13.284;2023-07-13T00:57:23;23.00;39.80
67050;DHT22;53955;52.442;13.284;2023-07-13T00:59:55;23.00;39.60
67050;DHT22;53955;52.442;13.284;2023-07-13T01:02:24;23.00;39.70
67050;DHT22;53955;52.442;13.284;2023-07-13T01:04:50;22.80;39.60
67050;DHT22;53955;52.442;13.284;2023-07-13T01:07:18;22.80;40.50
67050;DHT22;53955;52.442;13.284;2023-07-13T01:09:45;22.80;40.40
67050;DHT22;53955;52.442;13.284;2023-07-13T01:12:13;22.80;40.50
67050;DHT22;53955;52.442;13.284;2023-07-13T01:14:40;22.80;40.50
67050;DHT22;53955;52.442;13.284;2023-07-13T01:17:09;22.70;41.10
67050;DHT22;53955;52.442;13.284;2023-07-13T01:19:37;22.60;40.70
67050;DHT22;53955;52.442;13.284;2023-07-13T01:22:08;22.60;41.20
67050;DHT22;53955;52.442;13.284;2023-07-13T01:24:35;22.60;41.40
67050;DHT22;53955;52.442;13.284;2023-07-13T01:27:02;22.50;41.00
67050;DHT22;53955;52.442;13.284;2023-07-13T01:29:31;22.50;41.60
67050;DHT22;53955;52.442;13.284;2023-07-13T01:31:59;22.60;41.90
67050;DHT22;53955;52.442;13.284;2023-07-13T01:34:26;22.50;41.60
67050;DHT22;53955;52.442;13.284;2023-07-13T01:36:53;22.50;41.40
67050;DHT22;53955;52.442;13.284;2023-07-13T01:39:22;22.50;42.00
67050;DHT22;53955;52.442;13.284;2023-07-13T01:41:49;22.50;41.40
67050;DHT22;53955;52.442;13.284;2023-07-13T01:44:16;22.40;42.10
67050;DHT22;53955;52.442;13.284;2023-07-13T01:46:42;22.40;42.40
67050;DHT22;53955;52.442;13.284;2023-07-13T01:49:09;22.30;42.80
67050;DHT22;53955;52.442;13.284;2023-07-13T01:51:35;22.30;42.20
67050;DHT22;53955;52.442;13.284;2023-07-13T01:54:02;22.30;43.70
67050;DHT22;53955;52.442;13.284;2023-07-13T01:56:30;22.40;43.00
67050;DHT22;53955;52.442;13.284;2023-07-13T01:58:56;22.40;43.30
67050;DHT22;53955;52.442;13.284;2023-07-13T02:01:23;22.30;43.80
67050;DHT22;53955;52.442;13.284;2023-07-13T02:03:50;22.40;43.10
67050;DHT22;53955;52.442;13.284;2023-07-13T02:06:16;22.40;43.00
67050;DHT22;53955;52.442;13.284;2023-07-13T02:08:43;22.50;43.70
67050;DHT22;53955;52.442;13.284;2023-07-13T02:11:10;22.30;43.10
67050;DHT22;53955;52.442;13.284;2023-07-13T02:13:37;22.20;44.30
67050;DHT22;53955;52.442;13.284;2023-07-13T02:16:04;22.20;44.70
67050;DHT22;53955;52.442;13.284;2023-07-13T02:18:31;22.10;43.70
67050;DHT22;53955;52.442;13.284;2023-07-13T02:20:58;22.10;44.50
67050;DHT22;53955;52.442;13.284;2023-07-13T02:23:25;22.10;44.30
67050;DHT22;53955;52.442;13.284;2023-07-13T02:25:54;22.20;44.30
67050;DHT22;53955;52.442;13.284;2023-07-13T02:28:21;22.20;44.70
67050;DHT22;53955;52.442;13.284;2023-07-13T02:30:49;22.20;45.00
67050;DHT22;53955;52.442;13.284;2023-07-13T02:33:16;22.20;45.40
67050;DHT22;53955;52.442;13.284;2023-07-13T02:35:42;22.30;45.10
67050;DHT22;53955;52.442;13.284;2023-07-13T02:38:09;22.30;45.00
67050;DHT22;53955;52.442;13.284;2023-07-13T02:40:36;22.30;45.00
67050;DHT22;53955;52.442;13.284;2023-07-13T02:43:03;22.20;45.00
67050;DHT22;53955;52.442;13.284;2023-07-13T02:45:30;22.20;44.70
67050;DHT22;53955;52.442;13.284;2023-07-13T02:47:58;22.10;45.10
67050;DHT22;53955;52.442;13.284;2023-07-13T02:50:24;22.20;44.80
67050;DHT22;53955;52.442;13.284;2023-07-13T02:52:51;22.00;45.20
67050;DHT22;53955;52.442;13.284;2023-07-13T02:55:17;22.10;45.80
67050;DHT22;53955;52.442;13.284;2023-07-13T02:57:44;22.00;46.20
67050;DHT22;53955;52.442;13.284;2023-07-13T03:00:11;22.00;46.00
67050;DHT22;53955;52.442;13.284;2023-07-13T03:02:38;21.90;45.60
67050;DHT22;53955;52.442;13.284;2023-07-13T03:05:06;21.90;46.10
67050;DHT22;53955;52.442;13.284;2023-07-13T03:07:36;21.90;46.60
67050;DHT22;53955;52.442;13.284;2023-07-13T03:10:02;21.90;45.90
67050;DHT22;53955;52.442;13.284;2023-07-13T03:12:29;21.90;46.40
67050;DHT22;53955;52.442;13.284;2023-07-13T03:14:57;21.90;46.40
67050;DHT22;53955;52.442;13.284;2023-07-13T03:17:23;21.90;46.60
67050;DHT22;53955;52.442;13.284;2023-07-13T03:19:50;21.90;46.40
67050;DHT22;53955;52.442;13.284;2023-07-13T03:22:18;21.90;46.30
67050;DHT22;53955;52.442;13.284;2023-07-13T03:24:45;21.90;46.20
67050;DHT22;53955;52.442;13.284;2023-07-13T03:27:12;21.90;46.60
67050;DHT22;53955;52.442;13.284;2023-07-13T03:29:39;22.00;46.30
67050;DHT22;53955;52.442;13.284;2023-07-13T03:32:06;22.00;46.60
67050;DHT22;53955;52.442;13.284;2023-07-13T03:34:33;22.00;46.40
67050;DHT22;53955;52.442;13.284;2023-07-13T03:36:59;22.10;45.80
67050;DHT22;53955;52.442;13.284;2023-07-13T03:39:27;22.10;46.70
67050;DHT22;53955;52.442;13.284;2023-07-13T03:41:54;22.20;46.70
67050;DHT22;53955;52.442;13.284;2023-07-13T03:44:20;22.30;46.00
67050;DHT22;53955;52.442;13.284;2023-07-13T03:46:47;22.30;46.40
67050;DHT22;53955;52.442;13.284;2023-07-13T03:49:13;22.40;46.70
67050;DHT22;53955;52.442;13.284;2023-07-13T03:51:40;22.40;45.70
67050;DHT22;53955;52.442;13.284;2023-07-13T03:54:06;22.40;45.60
67050;DHT22;53955;52.442;13.284;2023-07-13T03:56:34;22.40;46.30
67050;DHT22;53955;52.442;13.284;2023-07-13T03:59:01;22.30;46.10
67050;DHT22;53955;52.442;13.284;2023-07-13T04:01:28;22.40;46.80
67050;DHT22;53955;52.442;13.284;2023-07-13T04:03:54;22.40;46.70
67050;DHT22;53955;52.442;13.284;2023-07-13T04:06:23;22.40;47.40
67050;DHT22;53955;52.442;13.284;2023-07-13T04:08:52;22.40;47.40
67050;DHT22;53955;52.442;13.284;2023-07-13T04:11:20;22.40;47.40
67050;DHT22;53955;52.442;13.284;2023-07-13T04:13:48;22.40;47.50
67050;DHT22;53955;52.442;13.284;2023-07-13T04:16:16;22.20;48.20
67050;DHT22;53955;52.442;13.284;2023-07-13T04:18:43;22.40;48.30
67050;DHT22;53955;52.442;13.284;2023-07-13T04:21:10;22.30;48.60
67050;DHT22;53955;52.442;13.284;2023-07-13T04:23:37;22.30;49.00
67050;DHT22;53955;52.442;13.284;2023-07-13T04:26:05;22.50;48.20
67050;DHT22;53955;52.442;13.284;2023-07-13T04:28:31;22.60;47.90
67050;DHT22;53955;52.442;13.284;2023-07-13T04:31:00;22.60;48.00
67050;DHT22;53955;52.442;13.284;2023-07-13T04:33:26;22.80;47.10
67050;DHT22;53955;52.442;13.284;2023-07-13T04:35:54;23.00;47.40
67050;DHT22;53955;52.442;13.284;2023-07-13T04:38:21;23.20;46.60
67050;DHT22;53955;52.442;13.284;2023-07-13T04:40:50;23.30;46.10
67050;DHT22;53955;52.442;13.284;2023-07-13T04:43:16;23.50;45.70
67050;DHT22;53955;52.442;13.284;2023-07-13T04:45:43;23.70;44.00
67050;DHT22;53955;52.442;13.284;2023-07-13T04:48:11;23.90;43.10
67050;DHT22;53955;52.442;13.284;2023-07-13T04:50:38;24.10;42.70
67050;DHT22;53955;52.442;13.284;2023-07-13T04:53:04;24.60;41.40
67050;DHT22;53955;52.442;13.284;2023-07-13T04:55:32;25.30;40.00
67050;DHT22;53955;52.442;13.284;2023-07-13T04:57:58;26.60;35.70
67050;DHT22;53955;52.442;13.284;2023-07-13T05:00:25;28.40;32.30
67050;DHT22;53955;52.442;13.284;2023-07-13T05:02:55;30.00;29.10
67050;DHT22;53955;52.442;13.284;2023-07-13T05:05:24;31.30;26.30
67050;DHT22;53955;52.442;13.284;2023-07-13T05:07:51;32.30;24.70
67050;DHT22;53955;52.442;13.284;2023-07-13T05:10:18;32.50;24.00
67050;DHT22;53955;52.442;13.284;2023-07-13T05:12:45;33.10;22.80
67050;DHT22;53955;52.442;13.284;2023-07-13T05:15:12;33.50;22.30
67050;DHT22;53955;52.442;13.284;2023-07-13T05:17:38;33.70;21.80
67050;DHT22;53955;52.442;13.284;2023-07-13T05:20:06;34.50;21.20
67050;DHT22;53955;52.442;13.284;2023-07-13T05:22:34;34.60;20.90
67050;DHT22;53955;52.442;13.284;2023-07-13T05:25:01;34.80;20.50
67050;DHT22;53955;52.442;13.284;2023-07-13T05:27:28;35.10;20.40
67050;DHT22;53955;52.442;13.284;2023-07-13T05:29:54;35.50;19.40
67050;DHT22;53955;52.442;13.284;2023-07-13T05:32:21;35.60;18.90
67050;DHT22;53955;52.442;13.284;2023-07-13T05:34:47;36.00;18.50
67050;DHT22;53955;52.442;13.284;2023-07-13T05:37:14;36.60;18.20
67050;DHT22;53955;52.442;13.284;2023-07-13T05:39:42;37.10;17.20
67050;DHT22;53955;52.442;13.284;2023-07-13T05:42:08;37.00;17.80
67050;DHT22;53955;52.442;13.284;2023-07-13T05:44:35;37.20;17.40
67050;DHT22;53955;52.442;13.284;2023-07-13T05:47:02;37.80;16.70
67050;DHT22;53955;52.442;13.284;2023-07-13T05:49:29;38.00;16.20
67050;DHT22;53955;52.442;13.284;2023-07-13T05:51:56;38.20;15.70
67050;DHT22;53955;52.442;13.284;2023-07-13T05:54:23;38.40;15.70
67050;DHT22;53955;52.442;13.284;2023-07-13T05:56:50;39.00;14.60
67050;DHT22;53955;52.442;13.284;2023-07-13T05:59:17;39.40;14.40
67050;DHT22;53955;52.442;13.284;2023-07-13T06:01:44;39.20;14.50
67050;DHT22;53955;52.442;13.284;2023-07-13T06:04:10;39.20;13.90
67050;DHT22;53955;52.442;13.284;2023-07-13T06:06:37;39.30;14.50
67050;DHT22;53955;52.442;13.284;2023-07-13T06:09:03;39.70;14.80
67050;DHT22;53955;52.442;13.284;2023-07-13T06:11:30;40.20;13.60
67050;DHT22;53955;52.442;13.284;2023-07-13T06:13:58;41.00;12.40
67050;DHT22;53955;52.442;13.284;2023-07-13T06:16:24;41.70;11.30
67050;DHT22;53955;52.442;13.284;2023-07-13T06:18:51;41.60;11.60
67050;DHT22;53955;52.442;13.284;2023-07-13T06:21:19;41.00;12.00
67050;DHT22;53955;52.442;13.284;2023-07-13T06:23:48;40.80;12.00
67050;DHT22;53955;52.442;13.284;2023-07-13T06:26:15;40.10;12.50
67050;DHT22;53955;52.442;13.284;2023-07-13T06:28:41;39.40;12.80
67050;DHT22;53955;52.442;13.284;2023-07-13T06:31:11;38.90;14.00
67050;DHT22;53955;52.442;13.284;2023-07-13T06:33:38;38.00;14.30
67050;DHT22;53955;52.442;13.284;2023-07-13T06:36:06;37.20;14.10
67050;DHT22;53955;52.442;13.284;2023-07-13T06:38:34;35.90;15.50
67050;DHT22;53955;52.442;13.284;2023-07-13T06:41:01;35.00;16.70
67050;DHT22;53955;52.442;13.284;2023-07-13T06:43:27;34.10;17.40
67050;DHT22;53955;52.442;13.284;2023-07-13T06:45:55;33.60;18.00
67050;DHT22;53955;52.442;13.284;2023-07-13T06:48:23;33.30;18.70
67050;DHT22;53955;52.442;13.284;2023-07-13T06:50:50;32.90;19.50
67050;DHT22;53955;52.442;13.284;2023-07-13T06:53:19;32.60;19.20
67050;DHT22;53955;52.442;13.284;2023-07-13T06:55:46;32.40;19.90
67050;DHT22;53955;52.442;13.284;2023-07-13T06:58:14;32.20;21.10
67050;DHT22;53955;52.442;13.284;2023-07-13T07:00:41;32.10;20.50
67050;DHT22;53955;52.442;13.284;2023-07-13T07:03:07;32.20;21.10
67050;DHT22;53955;52.442;13.284;2023-07-13T07:05:35;32.30;20.90
67050;DHT22;53955;52.442;13.284;2023-07-13T07:08:02;32.20;21.60
67050;DHT22;53955;52.442;13.284;2023-07-13T07:10:30;32.20;20.90
67050;DHT22;53955;52.442;13.284;2023-07-13T07:12:57;32.00;20.80
67050;DHT22;53955;52.442;13.284;2023-07-13T07:15:23;32.20;20.20
67050;DHT22;53955;52.442;13.284;2023-07-13T07:17:50;32.00;20.50
67050;DHT22;53955;52.442;13.284;2023-07-13T07:20:17;31.90;20.70
67050;DHT22;53955;52.442;13.284;2023-07-13T07:22:44;31.80;20.20
67050;DHT22;53955;52.442;13.284;2023-07-13T07:25:11;31.80;21.00
67050;DHT22;53955;52.442;13.284;2023-07-13T07:27:38;31.80;20.20
67050;DHT22;53955;52.442;13.284;2023-07-13T07:30:06;31.90;20.70
67050;DHT22;53955;52.442;13.284;2023-07-13T07:32:32;31.90;21.10
67050;DHT22;53955;52.442;13.284;2023-07-13T07:34:59;32.00;20.80
67050;DHT22;53955;52.442;13.284;2023-07-13T07:37:26;32.10;20.00
67050;DHT22;53955;52.442;13.284;2023-07-13T07:39:53;32.20;19.40
67050;DHT22;53955;52.442;13.284;2023-07-13T07:42:20;32.20;19.00
67050;DHT22;53955;52.442;13.284;2023-07-13T07:44:46;31.90;19.60
67050;DHT22;53955;52.442;13.284;2023-07-13T07:47:13;31.60;20.50
67050;DHT22;53955;52.442;13.284;2023-07-13T07:49:40;31.30;21.10
67050;DHT22;53955;52.442;13.284;2023-07-13T07:52:07;31.00;21.30
67050;DHT22;53955;52.442;13.284;2023-07-13T07:54:34;30.80;20.80
67050;DHT22;53955;52.442;13.284;2023-07-13T07:57:02;30.50;21.70
67050;DHT22;53955;52.442;13.284;2023-07-13T07:59:29;30.00;21.90
67050;DHT22;53955;52.442;13.284;2023-07-13T08:01:55;29.70;22.50
67050;DHT22;53955;52.442;13.284;2023-07-13T08:04:22;29.40;23.10
67050;DHT22;53955;52.442;13.284;2023-07-13T08:06:49;29.30;23.30
67050;DHT22;53955;52.442;13.284;2023-07-13T08:09:15;29.40;23.20
67050;DHT22;53955;52.442;13.284;2023-07-13T08:11:42;29.50;22.10
67050;DHT22;53955;52.442;13.284;2023-07-13T08:14:09;29.50;21.40
67050;DHT22;53955;52.442;13.284;2023-07-13T08:16:37;29.70;19.60
67050;DHT22;53955;52.442;13.284;2023-07-13T08:19:03;29.60;20.10
67050;DHT22;53955;52.442;13.284;2023-07-13T08:21:31;29.40;21.00
67050;DHT22;53955;52.442;13.284;2023-07-13T08:23:58;29.30;22.40
67050;DHT22;53955;52.442;13.284;2023-07-13T08:26:24;29.20;21.80
67050;DHT22;53955;52.442;13.284;2023-07-13T08:28:51;29.10;22.30
67050;DHT22;53955;52.442;13.284;2023-07-13T08:31:19;29.10;23.20
67050;DHT22;53955;52.442;13.284;2023-07-13T08:33:45;29.10;21.90
67050;DHT22;53955;52.442;13.284;2023-07-13T08:36:12;29.00;22.00
67050;DHT22;53955;52.442;13.284;2023-07-13T08:38:39;28.80;23.00
67050;DHT22;53955;52.442;13.284;2023-07-13T08:41:11;28.80;23.10
67050;DHT22;53955;52.442;13.284;2023-07-13T08:43:38;28.60;22.80
67050;DHT22;53955;52.442;13.284;2023-07-13T08:46:09;28.50;24.10
67050;DHT22;53955;52.442;13.284;2023-07-13T08:48:43;28.60;24.20
67050;DHT22;53955;52.442;13.284;2023-07-13T08:51:22;29.10;24.20
67050;DHT22;53955;52.442;13.284;2023-07-13T08:53:56;29.60;23.30
67050;DHT22;53955;52.442;13.284;2023-07-13T08:56:27;30.00;22.70
67050;DHT22;53955;52.442;13.284;2023-07-13T08:58:56;30.50;22.10
67050;DHT22;53955;52.442;13.284;2023-07-13T09:01:30;30.70;21.40
67050;DHT22;53955;52.442;13.284;2023-07-13T09:04:05;30.80;21.40
67050;DHT22;53955;52.442;13.284;2023-07-13T09:06:42;30.80;21.10
67050;DHT22;53955;52.442;13.284;2023-07-13T09:09:16;30.70;19.90
67050;DHT22;53955;52.442;13.284;2023-07-13T09:11:50;30.70;20.30
67050;DHT22;53955;52.442;13.284;2023-07-13T09:14:40;30.60;21.10
67050;DHT22;53955;52.442;13.284;2023-07-13T09:17:12;30.60;20.90
67050;DHT22;53955;52.442;13.284;2023-07-13T09:19:43;30.40;21.30
67050;DHT22;53955;52.442;13.284;2023-07-13T09:22:16;30.30;21.50
67050;DHT22;53955;52.442;13.284;2023-07-13T09:24:55;30.60;21.20
67050;DHT22;53955;52.442;13.284;2023-07-13T09:27:27;30.60;20.80
67050;DHT22;53955;52.442;13.284;2023-07-13T09:30:02;30.50;20.90
67050;DHT22;53955;52.442;13.284;2023-07-13T09:32:31;29.90;20.30
67050;DHT22;53955;52.442;13.284;2023-07-13T09:34:59;29.60;21.90
67050;DHT22;53955;52.442;13.284;2023-07-13T09:37:31;29.40;21.10
67050;DHT22;53955;52.442;13.284;2023-07-13T09:39:59;29.20;21.30
67050;DHT22;53955;52.442;13.284;2023-07-13T09:42:30;29.30;22.20
67050;DHT22;53955;52.442;13.284;2023-07-13T09:44:59;29.50;19.70
67050;DHT22;53955;52.442;13.284;2023-07-13T09:47:29;29.50;18.80
67050;DHT22;53955;52.442;13.284;2023-07-13T09:49:57;29.50;18.90
67050;DHT22;53955;52.442;13.284;2023-07-13T09:52:26;29.30;20.40
67050;DHT22;53955;52.442;13.284;2023-07-13T09:54:54;29.10;20.00
67050;DHT22;53955;52.442;13.284;2023-07-13T09:57:26;28.80;19.80
67050;DHT22;53955;52.442;13.284;2023-07-13T09:59:55;28.80;19.40
67050;DHT22;53955;52.442;13.284;2023-07-13T10:02:26;29.00;19.20
67050;DHT22;53955;52.442;13.284;2023-07-13T10:04:57;29.30;18.00
67050;DHT22;53955;52.442;13.284;2023-07-13T10:07:26;29.30;18.00
67050;DHT22;53955;52.442;13.284;2023-07-13T10:09:53;29.30;17.90
67050;DHT22;53955;52.442;13.284;2023-07-13T10:12:21;29.60;18.00
67050;DHT22;53955;52.442;13.284;2023-07-13T10:14:49;29.70;18.50
67050;DHT22;53955;52.442;13.284;2023-07-13T10:17:20;30.00;18.30
67050;DHT22;53955;52.442;13.284;2023-07-13T10:19:52;29.90;17.70
67050;DHT22;53955;52.442;13.284;2023-07-13T10:22:25;29.70;18.90
67050;DHT22;53955;52.442;13.284;2023-07-13T10:24:55;29.70;17.90
67050;DHT22;53955;52.442;13.284;2023-07-13T10:27:28;29.60;18.00
67050;DHT22;53955;52.442;13.284;2023-07-13T10:30:01;29.50;18.20
67050;DHT22;53955;52.442;13.284;2023-07-13T10:32:28;29.30;17.90
67050;DHT22;53955;52.442;13.284;2023-07-13T10:34:54;29.10;18.40
67050;DHT22;53955;52.442;13.284;2023-07-13T10:37:26;29.10;18.80
67050;DHT22;53955;52.442;13.284;2023-07-13T10:39:57;29.00;18.70
67050;DHT22;53955;52.442;13.284;2023-07-13T10:42:28;29.10;18.60
67050;DHT22;53955;52.442;13.284;2023-07-13T10:44:55;29.30;18.60
67050;DHT22;53955;52.442;13.284;2023-07-13T10:47:22;29.40;18.50
67050;DHT22;53955;52.442;13.284;2023-07-13T10:49:53;29.50;16.70
67050;DHT22;53955;52.442;13.284;2023-07-13T10:52:42;29.40;18.00
67050;DHT22;53955;52.442;13.284;2023-07-13T10:55:34;29.50;17.20
67050;DHT22;53955;52.442;13.284;2023-07-13T10:58:03;29.50;15.70
67050;DHT22;53955;52.442;13.284;2023-07-13T11:00:44;29.30;14.60
67050;DHT22;53955;52.442;13.284;2023-07-13T11:03:15;29.30;14.10
67050;DHT22;53955;52.442;13.284;2023-07-13T11:05:43;29.40;13.30
67050;DHT22;53955;52.442;13.284;2023-07-13T11:08:18;29.50;12.80
67050;DHT22;53955;52.442;13.284;2023-07-13T11:10:50;29.70;13.90
67050;DHT22;53955;52.442;13.284;2023-07-13T11:13:38;29.70;13.10
67050;DHT22;53955;52.442;13.284;2023-07-13T11:16:36;29.80;14.20
67050;DHT22;53955;52.442;13.284;2023-07-13T11:19:27;29.90;15.00
67050;DHT22;53955;52.442;13.284;2023-07-13T11:22:11;30.10;15.00
67050;DHT22;53955;52.442;13.284;2023-07-13T11:24:56;30.00;15.00
67050;DHT22;53955;52.442;13.284;2023-07-13T11:27:33;30.00;15.10
67050;DHT22;53955;52.442;13.284;2023-07-13T11:30:22;29.90;15.60
67050;DHT22;53955;52.442;13.284;2023-07-13T11:32:51;30.00;15.90
67050;DHT22;53955;52.442;13.284;2023-07-13T11:35:31;30.20;16.80
67050;DHT22;53955;52.442;13.284;2023-07-13T11:38:00;30.00;16.40
67050;DHT22;53955;52.442;13.284;2023-07-13T11:40:28;29.80;16.60
67050;DHT22;53955;52.442;13.284;2023-07-13T11:43:00;29.80;16.70
67050;DHT22;53955;52.442;13.284;2023-07-13T11:45:28;29.70;15.90
67050;DHT22;53955;52.442;13.284;2023-07-13T11:47:54;29.70;15.40
67050;DHT22;53955;52.442;13.284;2023-07-13T11:50:24;29.80;16.00
67050;DHT22;53955;52.442;13.284;2023-07-13T11:52:52;29.90;15.80
67050;DHT22;53955;52.442;13.284;2023-07-13T11:55:22;29.90;15.80
67050;DHT22;53955;52.442;13.284;2023-07-13T11:57:51;29.90;15.90
67050;DHT22;53955;52.442;13.284;2023-07-13T12:00:25;29.90;14.50
67050;DHT22;53955;52.442;13.284;2023-07-13T12:02:55;29.80;15.60
67050;DHT22;53955;52.442;13.284;2023-07-13T12:05:22;30.00;15.70
67050;DHT22;53955;52.442;13.284;2023-07-13T12:07:51;30.00;15.20
67050;DHT22;53955;52.442;13.284;2023-07-13T12:10:22;29.90;15.30
67050;DHT22;53955;52.442;13.284;2023-07-13T12:12:52;30.00;14.90
67050;DHT22;53955;52.442;13.284;2023-07-13T12:15:21;29.80;15.60
67050;DHT22;53955;52.442;13.284;2023-07-13T12:17:49;30.00;15.30
67050;DHT22;53955;52.442;13.284;2023-07-13T12:20:21;30.10;15.00
67050;DHT22;53955;52.442;13.284;2023-07-13T12:22:50;30.10;16.40
67050;DHT22;53955;52.442;13.284;2023-07-13T12:25:17;30.20;16.40
67050;DHT22;53955;52.442;13.284;2023-07-13T12:27:47;30.20;16.70
67050;DHT22;53955;52.442;13.284;2023-07-13T12:30:27;30.10;16.40
67050;DHT22;53955;52.442;13.284;2023-07-13T12:32:57;30.10;16.20
67050;DHT22;53955;52.442;13.284;2023-07-13T12:35:25;30.20;15.70
67050;DHT22;53955;52.442;13.284;2023-07-13T12:37:52;30.00;15.40
67050;DHT22;53955;52.442;13.284;2023-07-13T12:40:20;30.10;15.80
67050;DHT22;53955;52.442;13.284;2023-07-13T12:42:49;30.00;16.20
67050;DHT22;53955;52.442;13.284;2023-07-13T12:45:19;29.90;16.80
67050;DHT22;53955;52.442;13.284;2023-07-13T12:47:50;30.20;16.30
67050;DHT22;53955;52.442;13.284;2023-07-13T12:50:19;30.10;15.50
67050;DHT22;53955;52.442;13.284;2023-07-13T12:52:51;30.10;15.50
67050;DHT22;53955;52.442;13.284;2023-07-13T12:55:19;30.00;15.00
67050;DHT22;53955;52.442;13.284;2023-07-13T12:57:50;29.80;15.40
67050;DHT22;53955;52.442;13.284;2023-07-13T13:00:25;29.80;15.00
67050;DHT22;53955;52.442;13.284;2023-07-13T13:02:56;29.70;15.90
67050;DHT22;53955;52.442;13.284;2023-07-13T13:05:25;29.50;16.20
67050;DHT22;53955;52.442;13.284;2023-07-13T13:07:52;29.40;15.50
67050;DHT22;53955;52.442;13.284;2023-07-13T13:10:19;29.20;15.50
67050;DHT22;53955;52.442;13.284;2023-07-13T13:12:46;29.30;16.20
67050;DHT22;53955;52.442;13.284;2023-07-13T13:15:13;29.40;15.60
67050;DHT22;53955;52.442;13.284;2023-07-13T13:17:41;29.50;16.30
67050;DHT22;53955;52.442;13.284;2023-07-13T13:20:16;29.40;16.40
67050;DHT22;53955;52.442;13.284;2023-07-13T13:22:43;29.40;16.90
67050;DHT22;53955;52.442;13.284;2023-07-13T13:25:10;29.40;16.70
67050;DHT22;53955;52.442;13.284;2023-07-13T13:27:37;29.50;16.60
67050;DHT22;53955;52.442;13.284;2023-07-13T13:30:10;29.60;16.20
67050;DHT22;53955;52.442;13.284;2023-07-13T13:32:38;29.80;15.80
67050;DHT22;53955;52.442;13.284;2023-07-13T13:35:05;29.70;15.90
67050;DHT22;53955;52.442;13.284;2023-07-13T13:37:34;29.80;15.10
67050;DHT22;53955;52.442;13.284;2023-07-13T13:40:00;29.90;15.30
67050;DHT22;53955;52.442;13.284;2023-07-13T13:42:27;30.00;14.70
67050;DHT22;53955;52.442;13.284;2023-07-13T13:44:54;29.90;15.20
67050;DHT22;53955;52.442;13.284;2023-07-13T13:47:29;29.90;15.40
67050;DHT22;53955;52.442;13.284;2023-07-13T13:49:56;29.80;16.00
67050;DHT22;53955;52.442;13.284;2023-07-13T13:52:23;29.60;14.80
67050;DHT22;53955;52.442;13.284;2023-07-13T13:54:52;29.50;15.50
67050;DHT22;53955;52.442;13.284;2023-07-13T13:57:22;29.60;15.60
67050;DHT22;53955;52.442;13.284;2023-07-13T13:59:49;29.60;16.20
67050;DHT22;53955;52.442;13.284;2023-07-13T14:02:22;29.70;15.90
67050;DHT22;53955;52.442;13.284;2023-07-13T14:04:53;29.70;15.40
67050;DHT22;53955;52.442;13.284;2023-07-13T14:07:20;29.60;15.60
67050;DHT22;53955;52.442;13.284;2023-07-13T14:09:47;29.60;14.50
67050;DHT22;53955;52.442;13.284;2023-07-13T14:12:15;29.40;14.50
67050;DHT22;53955;52.442;13.284;2023-07-13T14:14:41;29.30;15.20
67050;DHT22;53955;52.442;13.284;2023-07-13T14:17:18;29.30;14.80
67050;DHT22;53955;52.442;13.284;2023-07-13T14:19:47;29.20;14.20
67050;DHT22;53955;52.442;13.284;2023-07-13T14:22:16;29.10;14.00
67050;DHT22;53955;52.442;13.284;2023-07-13T14:24:42;29.20;14.90
67050;DHT22;53955;52.442;13.284;2023-07-13T14:27:10;29.20;14.80
67050;DHT22;53955;52.442;13.284;2023-07-13T14:29:39;29.20;15.10
67050;DHT22;53955;52.442;13.284;2023-07-13T14:32:10;29.10;15.20
67050;DHT22;53955;52.442;13.284;2023-07-13T14:34:37;29.20;15.40
67050;DHT22;53955;52.442;13.284;2023-07-13T14:37:04;29.30;15.30
67050;DHT22;53955;52.442;13.284;2023-07-13T14:39:31;29.20;14.30
67050;DHT22;53955;52.442;13.284;2023-07-13T14:41:58;29.30;15.10
67050;DHT22;53955;52.442;13.284;2023-07-13T14:44:27;29.30;15.10
67050;DHT22;53955;52.442;13.284;2023-07-13T14:47:07;29.30;14.70
67050;DHT22;53955;52.442;13.284;2023-07-13T14:49:36;29.40;14.90
67050;DHT22;53955;52.442;13.284;2023-07-13T14:52:10;29.40;15.90
67050;DHT22;53955;52.442;13.284;2023-07-13T14:54:38;29.50;15.40
67050;DHT22;53955;52.442;13.284;2023-07-13T14:57:09;29.40;14.40
67050;DHT22;53955;52.442;13.284;2023-07-13T14:59:36;29.40;13.50
67050;DHT22;53955;52.442;13.284;2023-07-13T15:02:09;29.50;14.50
67050;DHT22;53955;52.442;13.284;2023-07-13T15:04:39;29.40;12.90
67050;DHT22;53955;52.442;13.284;2023-07-13T15:07:10;29.40;13.10
67050;DHT22;53955;52.442;13.284;2023-07-13T15:09:37;29.40;14.40
67050;DHT22;53955;52.442;13.284;2023-07-13T15:12:04;29.40;12.60
67050;DHT22;53955;52.442;13.284;2023-07-13T15:14:31;29.40;13.40
67050;DHT22;53955;52.442;13.284;2023-07-13T15:16:58;29.40;13.40
67050;DHT22;53955;52.442;13.284;2023-07-13T15:19:27;29.30;13.10
67050;DHT22;53955;52.442;13.284;2023-07-13T15:21:55;29.30;12.90
67050;DHT22;53955;52.442;13.284;2023-07-13T15:24:22;29.40;12.90